Kilmaurs, United Kingdom
Current Conditions -  °F | °C
As of 11:20 AM on Saturday 20 Dec 2014 (Local Time) from EGPK Reporting Station
Scattered Clouds Scattered Clouds  
Wind Chill:   Ceiling: Unl
Heat Index:   Visibility: 6mi
Dew Point:   Wind: 18mph
Humidity: 76%   Direction: 290°WNW
Pressure: 30.15"   Gusts: NA
Location:  55.64°N, 4.53°W
Report Text: EGPK 201120Z 29016KT 9999 FEW014 SCT028 08/04 Q1021
Loading
Personal Weather Stations






























Interactive Weather Map New forecast layout! Learn more

10-Day Weather Forecast

Advertisements
Track Severe Weather on mobile